sensor_id;sensor_type;location;lat;lon;timestamp;pressure;altitude;pressure_sealevel;temperature;humidity
81005;BME280;70472;47.592;17.640;2023-12-20T00:00:31;99796.53;;;-3.03;93.08
81005;BME280;70472;47.592;17.640;2023-12-20T00:01:03;99795.06;;;-3.07;94.09
81005;BME280;70472;47.592;17.640;2023-12-20T00:01:36;99789.63;;;-3.04;94.32
81005;BME280;70472;47.592;17.640;2023-12-20T00:02:10;99796.28;;;-2.99;95.04
81005;BME280;70472;47.592;17.640;2023-12-20T00:02:42;99796.13;;;-2.96;94.70
81005;BME280;70472;47.592;17.640;2023-12-20T00:03:15;99794.34;;;-2.95;95.34
81005;BME280;70472;47.592;17.640;2023-12-20T00:03:47;99786.53;;;-2.97;94.87
81005;BME280;70472;47.592;17.640;2023-12-20T00:04:20;99792.31;;;-2.90;95.54
81005;BME280;70472;47.592;17.640;2023-12-20T00:04:52;99791.25;;;-2.87;95.45
81005;BME280;70472;47.592;17.640;2023-12-20T00:05:25;99791.94;;;-2.84;95.53
81005;BME280;70472;47.592;17.640;2023-12-20T00:05:57;99791.75;;;-2.81;95.75
81005;BME280;70472;47.592;17.640;2023-12-20T00:06:30;99792.69;;;-2.82;95.54
81005;BME280;70472;47.592;17.640;2023-12-20T00:07:03;99790.06;;;-2.82;95.57
81005;BME280;70472;47.592;17.640;2023-12-20T00:07:35;99791.59;;;-2.78;95.54
81005;BME280;70472;47.592;17.640;2023-12-20T00:08:09;99780.88;;;-2.75;96.31
81005;BME280;70472;47.592;17.640;2023-12-20T00:08:42;99782.41;;;-2.71;96.07
81005;BME280;70472;47.592;17.640;2023-12-20T00:09:14;99780.72;;;-2.72;95.98
81005;BME280;70472;47.592;17.640;2023-12-20T00:09:46;99783.03;;;-2.67;96.13
81005;BME280;70472;47.592;17.640;2023-12-20T00:10:19;99776.78;;;-2.64;96.96
81005;BME280;70472;47.592;17.640;2023-12-20T00:10:51;99777.63;;;-2.64;96.16
81005;BME280;70472;47.592;17.640;2023-12-20T00:11:24;99784.47;;;-2.61;96.28
81005;BME280;70472;47.592;17.640;2023-12-20T00:11:56;99781.84;;;-2.61;95.29
81005;BME280;70472;47.592;17.640;2023-12-20T00:12:29;99777.34;;;-2.59;94.98
81005;BME280;70472;47.592;17.640;2023-12-20T00:13:01;99771.69;;;-2.67;95.28
81005;BME280;70472;47.592;17.640;2023-12-20T00:13:34;99780.41;;;-2.67;94.72
81005;BME280;70472;47.592;17.640;2023-12-20T00:14:06;99775.28;;;-2.69;94.98
81005;BME280;70472;47.592;17.640;2023-12-20T00:14:39;99779.56;;;-2.67;94.23
81005;BME280;70472;47.592;17.640;2023-12-20T00:15:11;99774.16;;;-2.64;95.03
81005;BME280;70472;47.592;17.640;2023-12-20T00:15:45;99780.16;;;-2.62;94.47
81005;BME280;70472;47.592;17.640;2023-12-20T00:16:17;99777.47;;;-2.61;94.31
81005;BME280;70472;47.592;17.640;2023-12-20T00:16:50;99780.09;;;-2.61;94.06
81005;BME280;70472;47.592;17.640;2023-12-20T00:17:22;99777.34;;;-2.59;94.01
81005;BME280;70472;47.592;17.640;2023-12-20T00:17:54;99779.16;;;-2.60;93.73
81005;BME280;70472;47.592;17.640;2023-12-20T00:18:27;99774.84;;;-2.61;93.97
81005;BME280;70472;47.592;17.640;2023-12-20T00:18:59;99774.53;;;-2.56;94.22
81005;BME280;70472;47.592;17.640;2023-12-20T00:19:32;99776.22;;;-2.55;93.64
81005;BME280;70472;47.592;17.640;2023-12-20T00:20:05;99773.91;;;-2.60;93.85
81005;BME280;70472;47.592;17.640;2023-12-20T00:20:38;99772.47;;;-2.65;93.24
81005;BME280;70472;47.592;17.640;2023-12-20T00:21:11;99768.44;;;-2.71;93.64
81005;BME280;70472;47.592;17.640;2023-12-20T00:21:43;99772.25;;;-2.77;93.46
81005;BME280;70472;47.592;17.640;2023-12-20T00:22:15;99774.47;;;-2.85;93.46
81005;BME280;70472;47.592;17.640;2023-12-20T00:22:48;99776.19;;;-2.84;93.19
81005;BME280;70472;47.592;17.640;2023-12-20T00:23:20;99776.56;;;-2.90;93.25
81005;BME280;70472;47.592;17.640;2023-12-20T00:23:53;99771.31;;;-2.90;92.86
81005;BME280;70472;47.592;17.640;2023-12-20T00:24:26;99761.56;;;-2.88;93.64
81005;BME280;70472;47.592;17.640;2023-12-20T00:25:01;99766.59;;;-2.85;94.16
81005;BME280;70472;47.592;17.640;2023-12-20T00:25:35;99771.94;;;-2.86;94.57
81005;BME280;70472;47.592;17.640;2023-12-20T00:26:08;99767.75;;;-2.89;94.67
81005;BME280;70472;47.592;17.640;2023-12-20T00:26:40;99764.19;;;-2.88;95.17
81005;BME280;70472;47.592;17.640;2023-12-20T00:27:13;99762.97;;;-2.82;94.69
81005;BME280;70472;47.592;17.640;2023-12-20T00:27:45;99759.59;;;-2.84;95.68
81005;BME280;70472;47.592;17.640;2023-12-20T00:28:18;99761.00;;;-2.79;95.20
81005;BME280;70472;47.592;17.640;2023-12-20T00:28:50;99764.56;;;-2.80;94.93
81005;BME280;70472;47.592;17.640;2023-12-20T00:29:22;99761.94;;;-2.80;94.96
81005;BME280;70472;47.592;17.640;2023-12-20T00:29:55;99762.41;;;-2.73;95.18
81005;BME280;70472;47.592;17.640;2023-12-20T00:30:27;99755.47;;;-2.74;95.54
81005;BME280;70472;47.592;17.640;2023-12-20T00:31:00;99765.03;;;-2.73;95.39
81005;BME280;70472;47.592;17.640;2023-12-20T00:31:32;99762.50;;;-2.75;95.67
81005;BME280;70472;47.592;17.640;2023-12-20T00:32:05;99761.56;;;-2.74;95.88
81005;BME280;70472;47.592;17.640;2023-12-20T00:32:38;99759.63;;;-2.70;95.21
81005;BME280;70472;47.592;17.640;2023-12-20T00:33:10;99760.56;;;-2.71;95.62
81005;BME280;70472;47.592;17.640;2023-12-20T00:33:43;99757.00;;;-2.70;96.03
81005;BME280;70472;47.592;17.640;2023-12-20T00:34:15;99755.31;;;-2.71;95.50
81005;BME280;70472;47.592;17.640;2023-12-20T00:34:48;99757.00;;;-2.70;96.03
81005;BME280;70472;47.592;17.640;2023-12-20T00:35:20;99757.84;;;-2.70;95.50
81005;BME280;70472;47.592;17.640;2023-12-20T00:35:53;99760.56;;;-2.71;95.52
81005;BME280;70472;47.592;17.640;2023-12-20T00:36:25;99757.16;;;-2.73;95.25
81005;BME280;70472;47.592;17.640;2023-12-20T00:36:57;99765.03;;;-2.73;95.61
81005;BME280;70472;47.592;17.640;2023-12-20T00:37:30;99757.16;;;-2.73;95.98
81005;BME280;70472;47.592;17.640;2023-12-20T00:38:02;99751.75;;;-2.70;96.39
81005;BME280;70472;47.592;17.640;2023-12-20T00:38:35;99761.50;;;-2.72;96.30
81005;BME280;70472;47.592;17.640;2023-12-20T00:39:07;99764.03;;;-2.71;95.88
81005;BME280;70472;47.592;17.640;2023-12-20T00:39:40;99763.94;;;-2.69;96.09
81005;BME280;70472;47.592;17.640;2023-12-20T00:40:12;99755.22;;;-2.70;95.98
81005;BME280;70472;47.592;17.640;2023-12-20T00:40:44;99766.66;;;-2.71;95.47
81005;BME280;70472;47.592;17.640;2023-12-20T00:41:17;99764.75;;;-2.69;96.07
81005;BME280;70472;47.592;17.640;2023-12-20T00:41:49;99758.94;;;-2.74;95.57
81005;BME280;70472;47.592;17.640;2023-12-20T00:42:21;99762.25;;;-2.70;95.00
81005;BME280;70472;47.592;17.640;2023-12-20T00:42:54;99758.56;;;-2.67;94.28
81005;BME280;70472;47.592;17.640;2023-12-20T00:43:26;99763.66;;;-2.64;94.20
81005;BME280;70472;47.592;17.640;2023-12-20T00:43:59;99754.28;;;-2.69;94.62
81005;BME280;70472;47.592;17.640;2023-12-20T00:44:31;99757.84;;;-2.70;94.69
81005;BME280;70472;47.592;17.640;2023-12-20T00:45:04;99753.63;;;-2.72;94.37
81005;BME280;70472;47.592;17.640;2023-12-20T00:45:37;99753.69;;;-2.74;94.72
81005;BME280;70472;47.592;17.640;2023-12-20T00:46:09;99758.94;;;-2.74;94.41
81005;BME280;70472;47.592;17.640;2023-12-20T00:46:42;99761.41;;;-2.71;93.83
81005;BME280;70472;47.592;17.640;2023-12-20T00:47:14;99755.22;;;-2.70;94.29
81005;BME280;70472;47.592;17.640;2023-12-20T00:47:47;99751.91;;;-2.73;93.97
81005;BME280;70472;47.592;17.640;2023-12-20T00:48:19;99752.59;;;-2.70;94.38
81005;BME280;70472;47.592;17.640;2023-12-20T00:48:51;99752.59;;;-2.70;94.06
81005;BME280;70472;47.592;17.640;2023-12-20T00:49:24;99754.47;;;-2.72;93.45
81005;BME280;70472;47.592;17.640;2023-12-20T00:49:57;99755.47;;;-2.74;93.47
81005;BME280;70472;47.592;17.640;2023-12-20T00:50:29;99756.25;;;-2.72;93.37
81005;BME280;70472;47.592;17.640;2023-12-20T00:51:02;99752.22;;;-2.78;92.61
81005;BME280;70472;47.592;17.640;2023-12-20T00:51:34;99749.16;;;-2.86;92.31
81005;BME280;70472;47.592;17.640;2023-12-20T00:52:07;99754.03;;;-2.94;92.33
81005;BME280;70472;47.592;17.640;2023-12-20T00:52:39;99750.56;;;-2.94;91.98
81005;BME280;70472;47.592;17.640;2023-12-20T00:53:12;99749.47;;;-2.90;91.63
81005;BME280;70472;47.592;17.640;2023-12-20T00:53:44;99746.75;;;-2.89;92.35
81005;BME280;70472;47.592;17.640;2023-12-20T00:54:16;99751.72;;;-2.84;92.38
81005;BME280;70472;47.592;17.640;2023-12-20T00:54:49;99744.69;;;-2.84;92.26
81005;BME280;70472;47.592;17.640;2023-12-20T00:55:21;99745.53;;;-2.83;92.46
81005;BME280;70472;47.592;17.640;2023-12-20T00:55:54;99740.56;;;-2.88;92.14
81005;BME280;70472;47.592;17.640;2023-12-20T00:56:26;99738.41;;;-2.96;92.45
81005;BME280;70472;47.592;17.640;2023-12-20T00:56:59;99743.72;;;-2.97;91.81
81005;BME280;70472;47.592;17.640;2023-12-20T00:57:31;99739.50;;;-3.00;92.35
81005;BME280;70472;47.592;17.640;2023-12-20T00:58:04;99738.66;;;-3.00;91.95
81005;BME280;70472;47.592;17.640;2023-12-20T00:58:37;99736.97;;;-3.01;92.24
81005;BME280;70472;47.592;17.640;2023-12-20T00:59:10;99733.41;;;-3.00;92.25
81005;BME280;70472;47.592;17.640;2023-12-20T00:59:42;99740.34;;;-2.99;92.56
81005;BME280;70472;47.592;17.640;2023-12-20T01:00:15;99738.41;;;-2.96;92.32
81005;BME280;70472;47.592;17.640;2023-12-20T01:00:47;99738.28;;;-2.94;92.09
81005;BME280;70472;47.592;17.640;2023-12-20T01:01:21;99735.09;;;-2.99;92.34
81005;BME280;70472;47.592;17.640;2023-12-20T01:01:53;99742.69;;;-2.94;91.87
81005;BME280;70472;47.592;17.640;2023-12-20T01:02:26;99747.69;;;-2.90;92.54
81005;BME280;70472;47.592;17.640;2023-12-20T01:02:58;99745.06;;;-2.90;92.73
81005;BME280;70472;47.592;17.640;2023-12-20T01:03:30;99731.38;;;-2.95;92.46
81005;BME280;70472;47.592;17.640;2023-12-20T01:04:03;99737.72;;;-2.99;91.82
81005;BME280;70472;47.592;17.640;2023-12-20T01:04:36;99731.78;;;-3.03;91.71
81005;BME280;70472;47.592;17.640;2023-12-20T01:05:08;99726.84;;;-3.07;91.63
81005;BME280;70472;47.592;17.640;2023-12-20T01:05:40;99728.03;;;-3.13;91.29
81005;BME280;70472;47.592;17.640;2023-12-20T01:06:13;99715.88;;;-3.14;90.90
81005;BME280;70472;47.592;17.640;2023-12-20T01:06:45;99726.44;;;-3.15;91.54
81005;BME280;70472;47.592;17.640;2023-12-20T01:07:18;99724.16;;;-3.22;91.15
81005;BME280;70472;47.592;17.640;2023-12-20T01:07:50;99721.28;;;-3.17;91.94
81005;BME280;70472;47.592;17.640;2023-12-20T01:08:23;99722.13;;;-3.16;91.92
81005;BME280;70472;47.592;17.640;2023-12-20T01:08:55;99719.50;;;-3.16;92.18
81005;BME280;70472;47.592;17.640;2023-12-20T01:09:28;99725.78;;;-3.19;92.69
81005;BME280;70472;47.592;17.640;2023-12-20T01:10:01;99722.13;;;-3.16;92.87
81005;BME280;70472;47.592;17.640;2023-12-20T01:10:33;99721.19;;;-3.15;92.31
81005;BME280;70472;47.592;17.640;2023-12-20T01:11:06;99717.63;;;-3.14;92.83
81005;BME280;70472;47.592;17.640;2023-12-20T01:11:38;99718.50;;;-3.14;92.92
81005;BME280;70472;47.592;17.640;2023-12-20T01:12:10;99715.94;;;-3.15;92.92
81005;BME280;70472;47.592;17.640;2023-12-20T01:12:43;99721.13;;;-3.14;93.53
81005;BME280;70472;47.592;17.640;2023-12-20T01:13:16;99720.91;;;-3.11;93.09
81005;BME280;70472;47.592;17.640;2023-12-20T01:13:48;99716.59;;;-3.12;92.74
81005;BME280;70472;47.592;17.640;2023-12-20T01:14:22;99714.16;;;-3.15;92.74
81005;BME280;70472;47.592;17.640;2023-12-20T01:14:54;99710.53;;;-3.12;92.99
81005;BME280;70472;47.592;17.640;2023-12-20T01:15:27;99712.03;;;-3.08;93.00
81005;BME280;70472;47.592;17.640;2023-12-20T01:15:59;99705.66;;;-3.04;92.59
81005;BME280;70472;47.592;17.640;2023-12-20T01:16:33;99709.41;;;-3.08;93.07
81005;BME280;70472;47.592;17.640;2023-12-20T01:17:05;99703.75;;;-3.16;92.77
81005;BME280;70472;47.592;17.640;2023-12-20T01:17:38;99706.38;;;-3.16;92.50
81005;BME280;70472;47.592;17.640;2023-12-20T01:18:10;99696.81;;;-3.17;93.11
81005;BME280;70472;47.592;17.640;2023-12-20T01:18:42;99705.53;;;-3.17;92.56
81005;BME280;70472;47.592;17.640;2023-12-20T01:19:15;99713.59;;;-3.20;92.59
81005;BME280;70472;47.592;17.640;2023-12-20T01:19:47;99703.66;;;-3.15;92.27
81005;BME280;70472;47.592;17.640;2023-12-20T01:20:21;99707.91;;;-3.12;92.85
81005;BME280;70472;47.592;17.640;2023-12-20T01:20:53;99713.16;;;-3.12;92.30
81005;BME280;70472;47.592;17.640;2023-12-20T01:21:27;99709.00;;;-3.16;92.42
81005;BME280;70472;47.592;17.640;2023-12-20T01:21:59;99697.78;;;-3.18;91.91
81005;BME280;70472;47.592;17.640;2023-12-20T01:22:31;99702.25;;;-3.20;91.50
81005;BME280;70472;47.592;17.640;2023-12-20T01:23:05;99707.84;;;-3.27;90.96
81005;BME280;70472;47.592;17.640;2023-12-20T01:23:37;99703.78;;;-3.32;91.01
81005;BME280;70472;47.592;17.640;2023-12-20T01:24:10;99704.72;;;-3.33;91.51
81005;BME280;70472;47.592;17.640;2023-12-20T01:24:42;99701.38;;;-3.35;90.88
81005;BME280;70472;47.592;17.640;2023-12-20T01:25:14;99699.50;;;-3.33;91.51
81005;BME280;70472;47.592;17.640;2023-12-20T01:25:48;99695.28;;;-3.36;91.88
81005;BME280;70472;47.592;17.640;2023-12-20T01:26:20;99691.72;;;-3.35;91.39
81005;BME280;70472;47.592;17.640;2023-12-20T01:26:53;99692.22;;;-3.28;91.36
81005;BME280;70472;47.592;17.640;2023-12-20T01:27:25;99689.69;;;-3.30;91.80
81005;BME280;70472;47.592;17.640;2023-12-20T01:27:57;99692.47;;;-3.33;91.68
81005;BME280;70472;47.592;17.640;2023-12-20T01:28:30;99689.78;;;-3.31;92.05
81005;BME280;70472;47.592;17.640;2023-12-20T01:29:02;99692.56;;;-3.34;92.12
81005;BME280;70472;47.592;17.640;2023-12-20T01:29:34;99690.88;;;-3.35;92.55
81005;BME280;70472;47.592;17.640;2023-12-20T01:30:07;99682.75;;;-3.31;91.91
81005;BME280;70472;47.592;17.640;2023-12-20T01:30:40;99688.84;;;-3.30;92.55
81005;BME280;70472;47.592;17.640;2023-12-20T01:31:12;99688.00;;;-3.31;91.75
81005;BME280;70472;47.592;17.640;2023-12-20T01:31:45;99687.81;;;-3.28;91.62
81005;BME280;70472;47.592;17.640;2023-12-20T01:32:17;99693.03;;;-3.28;92.04
81005;BME280;70472;47.592;17.640;2023-12-20T01:32:49;99695.66;;;-3.28;91.47
81005;BME280;70472;47.592;17.640;2023-12-20T01:33:22;99691.38;;;-3.29;91.49
81005;BME280;70472;47.592;17.640;2023-12-20T01:33:54;99695.03;;;-3.31;91.79
81005;BME280;70472;47.592;17.640;2023-12-20T01:34:27;99690.53;;;-3.29;91.98
81005;BME280;70472;47.592;17.640;2023-12-20T01:34:59;99688.75;;;-3.29;91.65
81005;BME280;70472;47.592;17.640;2023-12-20T01:35:32;99695.19;;;-3.34;91.24
81005;BME280;70472;47.592;17.640;2023-12-20T01:36:05;99695.75;;;-3.43;90.28
81005;BME280;70472;47.592;17.640;2023-12-20T01:36:37;99689.13;;;-3.51;90.32
81005;BME280;70472;47.592;17.640;2023-12-20T01:37:10;99688.97;;;-3.47;90.48
81005;BME280;70472;47.592;17.640;2023-12-20T01:37:42;99694.59;;;-3.39;90.60
81005;BME280;70472;47.592;17.640;2023-12-20T01:38:15;99693.97;;;-3.43;90.42
81005;BME280;70472;47.592;17.640;2023-12-20T01:38:47;99685.16;;;-3.42;90.68
81005;BME280;70472;47.592;17.640;2023-12-20T01:39:19;99696.47;;;-3.41;91.27
81005;BME280;70472;47.592;17.640;2023-12-20T01:39:52;99699.00;;;-3.40;91.00
81005;BME280;70472;47.592;17.640;2023-12-20T01:40:24;99689.47;;;-3.41;91.12
81005;BME280;70472;47.592;17.640;2023-12-20T01:40:57;99689.34;;;-3.39;92.11
81005;BME280;70472;47.592;17.640;2023-12-20T01:41:29;99679.66;;;-3.37;92.19
81005;BME280;70472;47.592;17.640;2023-12-20T01:42:02;99680.66;;;-3.40;91.45
81005;BME280;70472;47.592;17.640;2023-12-20T01:42:34;99683.28;;;-3.40;91.80
81005;BME280;70472;47.592;17.640;2023-12-20T01:43:09;99679.72;;;-3.39;91.44
81005;BME280;70472;47.592;17.640;2023-12-20T01:43:41;99682.28;;;-3.37;91.65
81005;BME280;70472;47.592;17.640;2023-12-20T01:44:15;99676.19;;;-3.38;91.96
81005;BME280;70472;47.592;17.640;2023-12-20T01:44:49;99683.38;;;-3.41;91.84
81005;BME280;70472;47.592;17.640;2023-12-20T01:45:22;99677.38;;;-3.43;91.72
81005;BME280;70472;47.592;17.640;2023-12-20T01:45:57;99672.63;;;-3.37;92.23
81005;BME280;70472;47.592;17.640;2023-12-20T01:46:30;99667.09;;;-3.32;92.55
81005;BME280;70472;47.592;17.640;2023-12-20T01:47:03;99667.75;;;-3.29;92.64
81005;BME280;70472;47.592;17.640;2023-12-20T01:47:36;99662.41;;;-3.27;92.18
81005;BME280;70472;47.592;17.640;2023-12-20T01:48:10;99657.53;;;-3.33;91.89
81005;BME280;70472;47.592;17.640;2023-12-20T01:48:43;99656.59;;;-3.32;92.61
81005;BME280;70472;47.592;17.640;2023-12-20T01:49:16;99649.50;;;-3.30;92.50
81005;BME280;70472;47.592;17.640;2023-12-20T01:49:49;99655.69;;;-3.31;92.20
81005;BME280;70472;47.592;17.640;2023-12-20T01:50:22;99652.38;;;-3.35;92.27
81005;BME280;70472;47.592;17.640;2023-12-20T01:50:56;99655.69;;;-3.31;91.83
81005;BME280;70472;47.592;17.640;2023-12-20T01:51:28;99655.38;;;-3.27;92.19
81005;BME280;70472;47.592;17.640;2023-12-20T01:52:01;99648.41;;;-3.26;92.23
81005;BME280;70472;47.592;17.640;2023-12-20T01:52:34;99653.44;;;-3.23;91.66
81005;BME280;70472;47.592;17.640;2023-12-20T01:53:08;99652.75;;;-3.27;91.30
81005;BME280;70472;47.592;17.640;2023-12-20T01:53:42;99652.28;;;-3.33;91.34
81005;BME280;70472;47.592;17.640;2023-12-20T01:54:16;99647.97;;;-3.34;91.38
81005;BME280;70472;47.592;17.640;2023-12-20T01:54:49;99649.50;;;-3.30;91.73
81005;BME280;70472;47.592;17.640;2023-12-20T01:55:22;99644.16;;;-3.29;90.86
81005;BME280;70472;47.592;17.640;2023-12-20T01:55:56;99645.94;;;-3.29;90.77
81005;BME280;70472;47.592;17.640;2023-12-20T01:56:31;99644.34;;;-3.32;90.50
81005;BME280;70472;47.592;17.640;2023-12-20T01:57:05;99639.28;;;-3.35;90.57
81005;BME280;70472;47.592;17.640;2023-12-20T01:57:40;99633.34;;;-3.38;90.60
81005;BME280;70472;47.592;17.640;2023-12-20T01:58:14;99636.91;;;-3.39;89.89
81005;BME280;70472;47.592;17.640;2023-12-20T01:58:47;99639.06;;;-3.46;90.71
81005;BME280;70472;47.592;17.640;2023-12-20T01:59:21;99628.34;;;-3.57;89.86
81005;BME280;70472;47.592;17.640;2023-12-20T01:59:53;99629.47;;;-3.61;90.65
81005;BME280;70472;47.592;17.640;2023-12-20T02:00:28;99619.91;;;-3.62;91.01
81005;BME280;70472;47.592;17.640;2023-12-20T02:01:01;99616.19;;;-3.58;91.02
81005;BME280;70472;47.592;17.640;2023-12-20T02:01:34;99627.59;;;-3.59;91.20
81005;BME280;70472;47.592;17.640;2023-12-20T02:02:07;99628.34;;;-3.57;91.02
81005;BME280;70472;47.592;17.640;2023-12-20T02:02:43;99632.50;;;-3.53;90.99
81005;BME280;70472;47.592;17.640;2023-12-20T02:03:18;99623.69;;;-3.52;91.08
81005;BME280;70472;47.592;17.640;2023-12-20T02:03:51;99633.06;;;-3.48;90.96
81005;BME280;70472;47.592;17.640;2023-12-20T02:04:25;99625.78;;;-3.43;91.54
81005;BME280;70472;47.592;17.640;2023-12-20T02:04:58;99622.38;;;-3.45;91.84
81005;BME280;70472;47.592;17.640;2023-12-20T02:05:32;99626.78;;;-3.45;91.38
81005;BME280;70472;47.592;17.640;2023-12-20T02:06:06;99621.75;;;-3.48;91.99
81005;BME280;70472;47.592;17.640;2023-12-20T02:06:40;99631.75;;;-3.55;91.88
81005;BME280;70472;47.592;17.640;2023-12-20T02:07:13;99618.72;;;-3.57;91.45
81005;BME280;70472;47.592;17.640;2023-12-20T02:07:45;99624.03;;;-3.58;91.50
81005;BME280;70472;47.592;17.640;2023-12-20T02:08:18;99631.75;;;-3.55;91.48
81005;BME280;70472;47.592;17.640;2023-12-20T02:08:51;99629.88;;;-3.53;91.19
81005;BME280;70472;47.592;17.640;2023-12-20T02:09:23;99633.44;;;-3.54;90.97
81005;BME280;70472;47.592;17.640;2023-12-20T02:09:55;99637.63;;;-3.52;91.54
81005;BME280;70472;47.592;17.640;2023-12-20T02:10:28;99645.41;;;-3.50;91.65
81005;BME280;70472;47.592;17.640;2023-12-20T02:11:02;99642.78;;;-3.50;92.41
81005;BME280;70472;47.592;17.640;2023-12-20T02:11:34;99634.00;;;-3.49;91.83
81005;BME280;70472;47.592;17.640;2023-12-20T02:12:08;99643.47;;;-3.46;92.10
81005;BME280;70472;47.592;17.640;2023-12-20T02:12:41;99634.75;;;-3.47;92.21
81005;BME280;70472;47.592;17.640;2023-12-20T02:13:13;99645.25;;;-3.47;92.85
81005;BME280;70472;47.592;17.640;2023-12-20T02:13:46;99641.28;;;-3.54;92.24
81005;BME280;70472;47.592;17.640;2023-12-20T02:14:18;99642.22;;;-3.55;92.18
81005;BME280;70472;47.592;17.640;2023-12-20T02:14:50;99648.13;;;-3.52;92.99
81005;BME280;70472;47.592;17.640;2023-12-20T02:15:23;99649.53;;;-3.46;93.25
81005;BME280;70472;47.592;17.640;2023-12-20T02:15:55;99644.03;;;-3.41;93.50
81005;BME280;70472;47.592;17.640;2023-12-20T02:16:28;99642.16;;;-3.39;93.68
81005;BME280;70472;47.592;17.640;2023-12-20T02:17:00;99647.13;;;-3.35;93.17
81005;BME280;70472;47.592;17.640;2023-12-20T02:17:34;99642.63;;;-3.33;93.88
81005;BME280;70472;47.592;17.640;2023-12-20T02:18:06;99646.66;;;-3.41;93.52
81005;BME280;70472;47.592;17.640;2023-12-20T02:18:39;99643.56;;;-3.48;92.51
81005;BME280;70472;47.592;17.640;2023-12-20T02:19:15;99648.59;;;-3.45;92.95
81005;BME280;70472;47.592;17.640;2023-12-20T02:19:50;99650.47;;;-3.47;92.57
81005;BME280;70472;47.592;17.640;2023-12-20T02:20:22;99643.38;;;-3.45;91.99
81005;BME280;70472;47.592;17.640;2023-12-20T02:20:55;99635.34;;;-3.42;92.54
81005;BME280;70472;47.592;17.640;2023-12-20T02:21:34;99643.69;;;-3.35;92.50
81005;BME280;70472;47.592;17.640;2023-12-20T02:22:10;99641.81;;;-3.33;92.68
81005;BME280;70472;47.592;17.640;2023-12-20T02:22:43;99644.34;;;-3.32;92.75
81005;BME280;70472;47.592;17.640;2023-12-20T02:23:15;99646.09;;;-3.32;93.50
81005;BME280;70472;47.592;17.640;2023-12-20T02:23:47;99648.25;;;-3.39;93.52
81005;BME280;70472;47.592;17.640;2023-12-20T02:24:20;99650.69;;;-3.36;93.47
81005;BME280;70472;47.592;17.640;2023-12-20T02:24:52;99649.41;;;-3.29;92.75
81005;BME280;70472;47.592;17.640;2023-12-20T02:25:24;99652.59;;;-3.24;93.57
81005;BME280;70472;47.592;17.640;2023-12-20T02:25:56;99649.88;;;-3.22;93.93
81005;BME280;70472;47.592;17.640;2023-12-20T02:26:29;99655.03;;;-3.20;93.25
81005;BME280;70472;47.592;17.640;2023-12-20T02:27:02;99657.75;;;-3.22;93.20
81005;BME280;70472;47.592;17.640;2023-12-20T02:27:35;99656.16;;;-3.25;92.80
81005;BME280;70472;47.592;17.640;2023-12-20T02:28:07;99651.66;;;-3.23;93.29
81005;BME280;70472;47.592;17.640;2023-12-20T02:28:40;99655.97;;;-3.22;92.72
81005;BME280;70472;47.592;17.640;2023-12-20T02:29:12;99660.94;;;-3.17;93.58
81005;BME280;70472;47.592;17.640;2023-12-20T02:29:47;99654.28;;;-3.23;93.42
81005;BME280;70472;47.592;17.640;2023-12-20T02:30:19;99651.84;;;-3.26;93.69
81005;BME280;70472;47.592;17.640;2023-12-20T02:30:52;99648.41;;;-3.26;93.11
81005;BME280;70472;47.592;17.640;2023-12-20T02:31:25;99650.06;;;-3.25;93.23
81005;BME280;70472;47.592;17.640;2023-12-20T02:31:57;99655.97;;;-3.22;92.50
81005;BME280;70472;47.592;17.640;2023-12-20T02:32:30;99655.13;;;-3.22;92.77
81005;BME280;70472;47.592;17.640;2023-12-20T02:33:08;99660.00;;;-3.16;92.33
81005;BME280;70472;47.592;17.640;2023-12-20T02:33:42;99660.84;;;-3.15;92.73
81005;BME280;70472;47.592;17.640;2023-12-20T02:34:15;99658.16;;;-3.14;92.84
81005;BME280;70472;47.592;17.640;2023-12-20T02:34:48;99661.63;;;-3.13;92.96
81005;BME280;70472;47.592;17.640;2023-12-20T02:35:20;99661.41;;;-3.10;92.57
81005;BME280;70472;47.592;17.640;2023-12-20T02:35:53;99667.34;;;-3.07;92.55
81005;BME280;70472;47.592;17.640;2023-12-20T02:36:25;99659.56;;;-3.08;92.17
81005;BME280;70472;47.592;17.640;2023-12-20T02:36:57;99661.41;;;-3.10;92.42
81005;BME280;70472;47.592;17.640;2023-12-20T02:37:30;99663.09;;;-3.09;92.19
81005;BME280;70472;47.592;17.640;2023-12-20T02:38:02;99655.44;;;-3.12;92.38
81005;BME280;70472;47.592;17.640;2023-12-20T02:38:34;99656.16;;;-3.10;92.64
81005;BME280;70472;47.592;17.640;2023-12-20T02:39:07;99653.75;;;-3.13;92.27
81005;BME280;70472;47.592;17.640;2023-12-20T02:39:39;99652.91;;;-3.14;92.83
81005;BME280;70472;47.592;17.640;2023-12-20T02:40:12;99651.50;;;-3.05;92.43
81005;BME280;70472;47.592;17.640;2023-12-20T02:40:44;99654.88;;;-3.03;93.25
81005;BME280;70472;47.592;17.640;2023-12-20T02:41:16;99651.34;;;-3.02;92.65
81005;BME280;70472;47.592;17.640;2023-12-20T02:41:49;99654.13;;;-3.05;91.86
81005;BME280;70472;47.592;17.640;2023-12-20T02:42:21;99654.03;;;-3.04;92.20
81005;BME280;70472;47.592;17.640;2023-12-20T02:42:54;99654.78;;;-3.02;92.15
81005;BME280;70472;47.592;17.640;2023-12-20T02:43:26;99652.66;;;-2.95;92.13
81005;BME280;70472;47.592;17.640;2023-12-20T02:44:01;99656.22;;;-2.96;91.93
81005;BME280;70472;47.592;17.640;2023-12-20T02:44:34;99660.50;;;-2.95;91.99
81005;BME280;70472;47.592;17.640;2023-12-20T02:45:07;99652.53;;;-2.93;91.90
81005;BME280;70472;47.592;17.640;2023-12-20T02:45:41;99656.00;;;-2.93;92.92
81005;BME280;70472;47.592;17.640;2023-12-20T02:46:16;99666.13;;;-2.87;92.30
81005;BME280;70472;47.592;17.640;2023-12-20T02:46:49;99664.25;;;-2.85;93.15
81005;BME280;70472;47.592;17.640;2023-12-20T02:47:21;99664.06;;;-2.82;92.61
81005;BME280;70472;47.592;17.640;2023-12-20T02:47:54;99662.41;;;-2.83;93.25
81005;BME280;70472;47.592;17.640;2023-12-20T02:48:26;99667.66;;;-2.83;93.79
81005;BME280;70472;47.592;17.640;2023-12-20T02:48:58;99669.13;;;-2.79;93.85
81005;BME280;70472;47.592;17.640;2023-12-20T02:49:31;99673.25;;;-2.75;93.87
81005;BME280;70472;47.592;17.640;2023-12-20T02:50:03;99666.06;;;-2.71;94.05
81005;BME280;70472;47.592;17.640;2023-12-20T02:50:36;99672.53;;;-2.77;93.68
81005;BME280;70472;47.592;17.640;2023-12-20T02:51:08;99661.25;;;-2.79;94.71
81005;BME280;70472;47.592;17.640;2023-12-20T02:51:41;99669.78;;;-2.75;94.20